createdAt,value
2017-10-25T00:00:20.585Z,67.00
2017-10-25T00:02:46.701Z,67.00
2017-10-25T00:05:13.566Z,66.50
2017-10-25T00:07:40.417Z,66.50
2017-10-25T00:10:07.280Z,66.30
2017-10-25T00:12:34.128Z,66.30
2017-10-25T00:15:00.964Z,65.90
2017-10-25T00:17:27.075Z,65.80
2017-10-25T00:19:56.017Z,65.90
2017-10-25T00:22:23.060Z,65.80
2017-10-25T00:24:49.149Z,65.80
2017-10-25T00:27:15.248Z,65.70
2017-10-25T00:29:45.365Z,66.20
2017-10-25T00:32:11.469Z,66.00
2017-10-25T00:34:41.537Z,65.90
2017-10-25T00:37:08.372Z,65.60
2017-10-25T00:39:35.455Z,65.50
2017-10-25T00:42:01.556Z,65.50
2017-10-25T00:44:27.657Z,65.50
2017-10-25T00:46:53.789Z,65.80
2017-10-25T00:49:19.885Z,65.80
2017-10-25T00:51:46.073Z,65.80
2017-10-25T00:54:12.210Z,65.60
2017-10-25T00:56:38.322Z,65.50
2017-10-25T00:59:05.174Z,65.80
2017-10-25T01:01:31.296Z,65.80
2017-10-25T01:03:57.466Z,66.00
2017-10-25T01:06:24.364Z,65.80
2017-10-25T01:08:50.506Z,65.80
2017-10-25T01:11:16.606Z,66.10
2017-10-25T01:13:42.737Z,65.80
2017-10-25T01:16:08.870Z,65.50
2017-10-25T01:18:35.017Z,65.30
2017-10-25T01:21:01.132Z,65.40
2017-10-25T01:23:28.014Z,65.70
2017-10-25T01:25:54.155Z,65.60
2017-10-25T01:28:21.553Z,66.10
2017-10-25T01:30:47.673Z,66.10
2017-10-25T01:33:16.298Z,65.90
2017-10-25T01:35:42.500Z,65.80
2017-10-25T01:38:09.477Z,66.20
2017-10-25T01:40:35.609Z,66.10
2017-10-25T01:43:01.733Z,66.50
2017-10-25T01:45:28.755Z,66.60
2017-10-25T01:47:55.635Z,67.60
2017-10-25T01:50:22.500Z,68.10
2017-10-25T01:52:49.364Z,68.40
2017-10-25T01:55:16.216Z,68.20
2017-10-25T01:57:42.337Z,68.20
2017-10-25T02:00:08.650Z,68.40
2017-10-25T02:02:34.793Z,67.90
2017-10-25T02:05:00.918Z,68.40
2017-10-25T02:07:27.073Z,68.90
2017-10-25T02:09:53.196Z,68.40
2017-10-25T02:12:20.324Z,68.30
2017-10-25T02:14:46.709Z,69.10
2017-10-25T02:17:13.117Z,69.40
2017-10-25T02:19:39.448Z,68.80
2017-10-25T02:22:06.520Z,69.00
2017-10-25T02:24:32.866Z,69.00
2017-10-25T02:26:59.918Z,69.40
2017-10-25T02:29:26.236Z,69.40
2017-10-25T02:31:52.553Z,68.90
2017-10-25T02:34:18.869Z,68.70
2017-10-25T02:36:45.200Z,68.80
2017-10-25T02:39:11.509Z,69.00
2017-10-25T02:41:39.421Z,68.30
2017-10-25T02:44:05.741Z,68.40
2017-10-25T02:46:32.217Z,69.00
2017-10-25T02:48:58.367Z,68.80
2017-10-25T02:51:24.535Z,69.10
2017-10-25T02:53:50.654Z,69.20
2017-10-25T02:56:16.769Z,68.40
2017-10-25T02:58:42.928Z,68.00
2017-10-25T03:01:09.081Z,68.20
2017-10-25T03:03:35.193Z,68.10
2017-10-25T03:06:02.166Z,68.00
2017-10-25T03:08:28.308Z,68.50
2017-10-25T03:10:55.187Z,69.10
2017-10-25T03:13:21.328Z,69.00
2017-10-25T03:15:47.465Z,69.20
2017-10-25T03:18:14.335Z,68.70
2017-10-25T03:20:40.469Z,68.70
2017-10-25T03:23:07.344Z,68.30
2017-10-25T03:25:33.453Z,68.30
2017-10-25T03:27:59.577Z,68.20
2017-10-25T03:30:25.695Z,68.50
2017-10-25T03:32:51.809Z,68.40
2017-10-25T03:35:18.676Z,69.20
2017-10-25T03:37:45.524Z,69.30
2017-10-25T03:40:11.644Z,69.20
2017-10-25T03:42:37.773Z,69.40
2017-10-25T03:45:03.894Z,68.60
2017-10-25T03:47:32.688Z,68.40
2017-10-25T03:49:59.537Z,68.70
2017-10-25T03:52:25.645Z,68.70
2017-10-25T03:54:52.496Z,67.70
2017-10-25T03:57:18.596Z,67.50
2017-10-25T03:59:44.690Z,68.00
2017-10-25T04:02:10.859Z,67.50
2017-10-25T04:04:38.132Z,67.60
2017-10-25T04:07:04.216Z,67.40
2017-10-25T04:09:31.101Z,67.40
2017-10-25T04:11:57.225Z,67.40
2017-10-25T04:14:23.345Z,66.80
2017-10-25T04:16:49.458Z,66.30
2017-10-25T04:19:15.554Z,66.20
2017-10-25T04:21:41.682Z,66.00
2017-10-25T04:24:07.801Z,65.80
2017-10-25T04:26:33.946Z,65.50
2017-10-25T04:29:00.049Z,65.70
2017-10-25T04:31:26.174Z,66.20
2017-10-25T04:33:52.280Z,66.60
2017-10-25T04:36:19.312Z,66.60
2017-10-25T04:38:45.432Z,66.80
2017-10-25T04:41:11.757Z,66.20
2017-10-25T04:43:38.089Z,67.10
2017-10-25T04:46:04.462Z,67.00
2017-10-25T04:48:31.529Z,66.60
2017-10-25T04:50:57.876Z,66.60
2017-10-25T04:53:24.906Z,66.10
2017-10-25T04:55:51.241Z,66.00
2017-10-25T04:58:17.593Z,66.50
2017-10-25T05:00:44.476Z,66.60
2017-10-25T05:03:10.872Z,66.70
2017-10-25T05:05:37.180Z,67.30
2017-10-25T05:08:03.506Z,66.70
2017-10-25T05:10:29.821Z,66.30
2017-10-25T05:12:56.124Z,66.10
2017-10-25T05:15:22.469Z,66.00
2017-10-25T05:17:48.769Z,65.50
2017-10-25T05:20:15.077Z,66.30
2017-10-25T05:22:41.364Z,65.90
2017-10-25T05:25:07.666Z,66.00
2017-10-25T05:27:33.981Z,66.00
2017-10-25T05:30:00.300Z,66.20
2017-10-25T05:32:27.374Z,65.60
2017-10-25T05:34:53.697Z,65.60
2017-10-25T05:37:21.141Z,66.00
2017-10-25T05:39:47.476Z,66.00
2017-10-25T05:42:14.527Z,65.70
2017-10-25T05:44:40.836Z,65.70
2017-10-25T05:47:07.181Z,65.70
2017-10-25T05:49:35.342Z,65.90
2017-10-25T05:52:02.433Z,66.20
2017-10-25T05:54:30.288Z,65.90
2017-10-25T05:56:56.609Z,65.70
2017-10-25T05:59:22.904Z,65.90
2017-10-25T06:01:49.957Z,65.90
2017-10-25T06:04:17.018Z,65.90
2017-10-25T06:06:43.354Z,65.70
2017-10-25T06:09:09.665Z,65.80
2017-10-25T06:11:35.994Z,65.50
2017-10-25T06:14:02.316Z,65.10
2017-10-25T06:16:28.670Z,65.90
2017-10-25T06:18:55.001Z,65.70
2017-10-25T06:21:21.326Z,65.50
2017-10-25T06:23:47.628Z,65.40
2017-10-25T06:26:13.933Z,65.30
2017-10-25T06:28:40.233Z,65.10
2017-10-25T06:31:06.554Z,64.70
2017-10-25T06:33:32.987Z,65.10
2017-10-25T06:35:59.324Z,64.60
2017-10-25T06:38:25.668Z,64.70
2017-10-25T06:40:52.745Z,65.10
2017-10-25T06:43:19.075Z,65.10
2017-10-25T06:45:46.105Z,65.10
2017-10-25T06:48:12.412Z,65.00
2017-10-25T06:50:38.743Z,64.80
2017-10-25T06:53:05.113Z,64.50
2017-10-25T06:55:31.434Z,64.50
2017-10-25T06:57:58.485Z,64.30
2017-10-25T07:00:24.809Z,64.30
2017-10-25T07:02:51.132Z,64.70
2017-10-25T07:05:17.492Z,64.40
2017-10-25T07:07:43.805Z,64.40
2017-10-25T07:10:10.950Z,64.10
2017-10-25T07:12:37.313Z,64.10
2017-10-25T07:15:04.408Z,63.70
2017-10-25T07:17:30.717Z,63.70
2017-10-25T07:22:29.190Z,63.70
2017-10-25T07:24:56.238Z,63.70
2017-10-25T07:27:22.544Z,63.60
2017-10-25T07:29:48.933Z,63.40
2017-10-25T07:32:15.244Z,63.40
2017-10-25T07:34:44.738Z,63.40
2017-10-25T07:37:11.787Z,63.20
2017-10-25T07:39:38.860Z,62.90
2017-10-25T07:42:12.469Z,62.90
2017-10-25T07:44:38.589Z,62.60
2017-10-25T07:47:04.725Z,62.50
2017-10-25T07:49:30.848Z,63.20
2017-10-25T07:51:56.932Z,62.50
2017-10-25T07:54:23.249Z,62.50
2017-10-25T07:56:49.551Z,62.30
2017-10-25T07:59:16.624Z,61.70
2017-10-25T08:04:40.721Z,61.80
2017-10-25T08:07:07.067Z,61.60
2017-10-25T08:12:06.652Z,61.50
2017-10-25T08:14:32.784Z,61.00
2017-10-25T08:16:59.663Z,61.30
2017-10-25T08:19:25.777Z,61.20
2017-10-25T08:21:52.631Z,61.00
2017-10-25T08:24:18.728Z,61.00
2017-10-25T08:26:48.105Z,61.20
2017-10-25T08:29:14.452Z,60.60
2017-10-25T08:31:40.782Z,60.70
2017-10-25T08:34:07.110Z,60.00
2017-10-25T08:36:33.665Z,59.80
2017-10-25T08:39:00.094Z,59.30
2017-10-25T08:41:26.550Z,59.10
2017-10-25T08:43:52.886Z,59.70
2017-10-25T08:46:23.545Z,60.10
2017-10-25T08:48:50.590Z,59.70
2017-10-25T08:51:16.934Z,59.60
2017-10-25T08:53:43.264Z,60.60
2017-10-25T08:56:09.681Z,59.70
2017-10-25T08:58:36.013Z,59.90
2017-10-25T09:01:03.054Z,59.80
2017-10-25T09:03:29.435Z,59.80
2017-10-25T09:05:58.898Z,59.30
2017-10-25T09:08:25.975Z,58.90
2017-10-25T09:10:53.058Z,58.60
2017-10-25T09:13:19.942Z,59.00
2017-10-25T09:15:46.113Z,58.90
2017-10-25T09:18:12.437Z,59.20
2017-10-25T09:20:38.564Z,58.80
2017-10-25T09:23:04.893Z,58.60
2017-10-25T09:25:33.290Z,58.40
2017-10-25T09:28:00.364Z,58.60
2017-10-25T09:30:26.671Z,58.60
2017-10-25T09:32:52.997Z,58.50
2017-10-25T09:35:19.311Z,58.80
2017-10-25T09:37:45.689Z,57.70
2017-10-25T09:40:12.013Z,57.90
2017-10-25T09:42:38.344Z,58.30
2017-10-25T09:45:07.835Z,58.50
2017-10-25T09:47:34.269Z,58.10
2017-10-25T09:50:00.675Z,57.90
2017-10-25T09:52:27.033Z,58.00
2017-10-25T09:54:53.357Z,58.10
2017-10-25T09:57:20.465Z,58.20
2017-10-25T09:59:46.805Z,58.20
2017-10-25T10:02:13.901Z,57.80
2017-10-25T10:04:43.979Z,57.80
2017-10-25T10:07:10.276Z,57.40
2017-10-25T10:09:36.581Z,56.80
2017-10-25T10:12:03.649Z,56.30
2017-10-25T10:14:29.997Z,56.30
2017-10-25T10:16:56.349Z,56.00
2017-10-25T10:19:22.720Z,55.40
2017-10-25T10:21:52.929Z,55.30
2017-10-25T10:24:19.280Z,55.40
2017-10-25T10:26:45.601Z,55.70
2017-10-25T10:29:11.920Z,56.00
2017-10-25T10:31:39.003Z,55.10
2017-10-25T10:34:05.320Z,55.10
2017-10-25T10:36:31.640Z,55.30
2017-10-25T10:39:02.622Z,54.70
2017-10-25T10:41:29.674Z,54.80
2017-10-25T10:43:56.737Z,54.90
2017-10-25T10:46:22.856Z,55.00
2017-10-25T10:48:49.914Z,54.80
2017-10-25T10:51:16.031Z,54.80
2017-10-25T10:53:42.168Z,54.10
2017-10-25T10:56:08.559Z,54.50
2017-10-25T10:58:38.265Z,55.00
2017-10-25T11:01:05.323Z,54.60
2017-10-25T11:03:32.381Z,54.80
2017-10-25T11:05:58.708Z,54.80
2017-10-25T11:08:25.032Z,54.40
2017-10-25T11:10:51.381Z,54.80
2017-10-25T11:13:17.796Z,55.00
2017-10-25T11:15:44.128Z,54.80
2017-10-25T11:18:13.704Z,53.90
2017-10-25T11:20:40.752Z,54.30
2017-10-25T11:23:07.064Z,54.30
2017-10-25T11:25:33.466Z,55.10
2017-10-25T11:28:00.508Z,55.00
2017-10-25T11:30:27.584Z,54.60
2017-10-25T11:32:54.453Z,54.70
2017-10-25T11:35:22.145Z,54.70
2017-10-25T11:38:00.660Z,55.00
2017-10-25T11:40:26.996Z,55.00
2017-10-25T11:42:53.330Z,55.50
2017-10-25T11:45:19.697Z,55.50
2017-10-25T11:47:49.981Z,56.00
2017-10-25T11:50:16.304Z,55.30
2017-10-25T11:52:42.628Z,55.50
2017-10-25T11:55:08.949Z,55.60
2017-10-25T11:57:35.283Z,56.20
2017-10-25T12:00:01.647Z,56.00
2017-10-25T12:02:27.984Z,56.00
2017-10-25T12:04:54.365Z,56.00
2017-10-25T12:07:24.396Z,55.90
2017-10-25T12:09:50.728Z,56.00
2017-10-25T12:12:17.048Z,55.90
2017-10-25T12:14:43.361Z,56.10
2017-10-25T12:17:09.670Z,55.80
2017-10-25T12:19:36.733Z,56.20
2017-10-25T12:22:03.074Z,56.20
2017-10-25T12:24:35.745Z,56.70
2017-10-25T12:27:02.806Z,56.80
2017-10-25T12:29:29.118Z,56.80
2017-10-25T12:31:56.169Z,56.80
2017-10-25T12:34:22.498Z,56.70
2017-10-25T12:36:48.806Z,56.80
2017-10-25T12:39:15.112Z,56.90
2017-10-25T12:41:47.661Z,56.90
2017-10-25T12:44:13.974Z,57.00
2017-10-25T12:46:40.297Z,57.40
2017-10-25T12:49:06.612Z,57.20
2017-10-25T12:51:32.940Z,57.30
2017-10-25T12:53:59.241Z,57.50
2017-10-25T12:56:25.598Z,57.70
2017-10-25T12:58:58.290Z,57.80
2017-10-25T13:01:24.613Z,57.90
2017-10-25T13:03:50.934Z,58.20
2017-10-25T13:06:17.280Z,57.90
2017-10-25T13:08:43.599Z,58.30
2017-10-25T13:11:11.555Z,58.80
2017-10-25T13:13:47.660Z,58.80
2017-10-25T13:16:17.497Z,58.60
2017-10-25T13:18:43.821Z,58.60
2017-10-25T13:21:10.433Z,59.00
2017-10-25T13:23:36.785Z,58.80
2017-10-25T13:26:03.093Z,58.90
2017-10-25T13:28:33.141Z,58.60
2017-10-25T13:31:00.194Z,58.60
2017-10-25T13:33:32.110Z,58.40
2017-10-25T13:35:59.033Z,58.80
2017-10-25T13:38:25.885Z,59.30
2017-10-25T13:40:51.995Z,59.20
2017-10-25T13:43:27.350Z,58.80
2017-10-25T13:45:53.483Z,58.70
2017-10-25T13:48:19.588Z,58.70
2017-10-25T13:50:46.436Z,58.70
2017-10-25T13:53:12.542Z,58.40
2017-10-25T13:55:38.714Z,58.70
2017-10-25T13:58:04.840Z,59.10
2017-10-25T14:00:34.562Z,59.80
2017-10-25T14:03:00.710Z,60.30
2017-10-25T14:05:26.850Z,61.00
2017-10-25T14:07:52.974Z,60.90
2017-10-25T14:10:19.072Z,61.10
2017-10-25T14:12:45.177Z,60.90
2017-10-25T14:15:11.308Z,61.00
2017-10-25T14:17:37.445Z,61.50
2017-10-25T14:22:34.749Z,61.50
2017-10-25T14:25:00.889Z,61.90
2017-10-25T14:27:54.023Z,62.00
2017-10-25T14:30:20.937Z,62.50
2017-10-25T14:32:47.061Z,62.40
2017-10-25T14:35:13.929Z,62.30
2017-10-25T14:37:40.790Z,62.50
2017-10-25T14:40:07.660Z,62.70
2017-10-25T14:42:33.881Z,62.80
2017-10-25T14:44:59.973Z,63.00
2017-10-25T14:47:28.224Z,63.10
2017-10-25T14:49:54.348Z,63.10
2017-10-25T14:52:20.474Z,63.40
2017-10-25T14:54:46.595Z,63.60
2017-10-25T14:57:13.076Z,63.80
2017-10-25T14:59:39.206Z,63.60
2017-10-25T15:04:38.057Z,64.60
2017-10-25T15:07:04.164Z,65.10
2017-10-25T15:09:30.298Z,65.40
2017-10-25T15:11:57.146Z,65.10
2017-10-25T15:14:23.361Z,65.10
2017-10-25T15:16:49.565Z,64.60
2017-10-25T15:19:15.874Z,65.90
2017-10-25T15:21:42.074Z,66.90
2017-10-25T15:24:08.300Z,66.40
2017-10-25T15:26:34.785Z,66.20
2017-10-25T15:29:01.017Z,65.70
2017-10-25T15:31:27.916Z,66.70
2017-10-25T15:33:54.077Z,66.00
2017-10-25T15:36:20.203Z,66.60
2017-10-25T15:38:46.322Z,66.80
2017-10-25T15:41:12.616Z,66.90
2017-10-25T15:43:38.781Z,67.00
2017-10-25T15:46:04.904Z,67.00
2017-10-25T15:48:33.101Z,67.00
2017-10-25T15:50:59.354Z,66.90
2017-10-25T15:53:25.474Z,66.90
2017-10-25T15:55:52.936Z,67.40
2017-10-25T15:58:19.109Z,67.30
2017-10-25T16:00:45.231Z,67.10
2017-10-25T16:03:12.336Z,67.50
2017-10-25T16:05:38.445Z,67.30
2017-10-25T16:08:04.564Z,67.70
2017-10-25T16:10:31.437Z,67.80
2017-10-25T16:13:01.395Z,67.70
2017-10-25T16:15:27.500Z,67.20
2017-10-25T16:17:55.427Z,67.20
2017-10-25T16:20:21.529Z,67.00
2017-10-25T16:22:48.440Z,67.00
2017-10-25T16:25:14.538Z,67.00
2017-10-25T16:27:40.654Z,67.00
2017-10-25T16:30:06.749Z,67.00
2017-10-25T16:32:33.127Z,66.60
2017-10-25T16:34:59.220Z,66.60
2017-10-25T16:37:26.051Z,66.80
2017-10-25T16:39:52.136Z,66.80
2017-10-25T16:42:19.035Z,67.00
2017-10-25T16:44:45.688Z,67.00
2017-10-25T16:47:11.889Z,67.40
2017-10-25T16:49:38.728Z,67.10
2017-10-25T16:52:04.829Z,67.10
2017-10-25T16:54:30.958Z,67.10
2017-10-25T16:56:57.047Z,67.20
2017-10-25T16:59:23.202Z,67.40
2017-10-25T17:01:49.291Z,67.30
2017-10-25T17:04:16.186Z,67.30
2017-10-25T17:06:42.497Z,67.20
2017-10-25T17:09:08.807Z,67.00
2017-10-25T17:11:35.156Z,67.10
2017-10-25T17:14:01.448Z,66.90
2017-10-25T17:16:28.495Z,66.80
2017-10-25T17:18:54.809Z,66.90
2017-10-25T17:21:21.168Z,66.90
2017-10-25T17:23:47.471Z,66.60
2017-10-25T17:26:14.792Z,66.90
2017-10-25T17:28:41.107Z,66.70
2017-10-25T17:31:07.469Z,66.80
2017-10-25T17:33:33.785Z,67.00
2017-10-25T17:36:00.862Z,67.10
2017-10-25T17:38:29.049Z,67.10
2017-10-25T17:40:55.770Z,67.10
2017-10-25T17:43:23.255Z,66.60
2017-10-25T17:45:51.016Z,66.80
2017-10-25T17:48:18.978Z,66.70
2017-10-25T17:50:49.654Z,66.40
2017-10-25T17:53:17.640Z,66.30
2017-10-25T17:55:46.324Z,66.60
2017-10-25T17:58:13.117Z,66.80
2017-10-25T18:00:41.531Z,66.50
2017-10-25T18:03:07.834Z,66.40
2017-10-25T18:05:34.108Z,66.70
2017-10-25T18:08:00.568Z,67.00
2017-10-25T18:10:27.644Z,66.60
2017-10-25T18:13:05.524Z,66.40
2017-10-25T18:15:36.017Z,66.80
2017-10-25T18:18:02.869Z,67.30
2017-10-25T18:20:28.950Z,67.30
2017-10-25T18:22:55.897Z,66.60
2017-10-25T18:25:21.999Z,66.60
2017-10-25T18:27:48.093Z,66.40
2017-10-25T18:30:14.205Z,66.60
2017-10-25T18:35:11.452Z,66.50
2017-10-25T18:37:37.540Z,67.10
2017-10-25T18:40:03.650Z,66.90
2017-10-25T18:42:30.504Z,66.90
2017-10-25T18:44:57.338Z,66.70
2017-10-25T18:47:23.438Z,66.70
2017-10-25T18:49:49.579Z,66.60
2017-10-25T18:52:15.655Z,66.80
2017-10-25T18:54:42.129Z,67.20
2017-10-25T18:57:08.248Z,67.70
2017-10-25T18:59:34.389Z,67.70
2017-10-25T19:02:00.548Z,67.20
2017-10-25T19:04:29.920Z,67.10
2017-10-25T19:06:56.060Z,67.00
2017-10-25T19:09:22.233Z,67.40
2017-10-25T19:11:48.451Z,67.30
2017-10-25T19:14:14.579Z,67.10
2017-10-25T19:16:40.681Z,67.30
2017-10-25T19:19:06.780Z,67.20
2017-10-25T19:21:32.881Z,67.00
2017-10-25T19:24:00.245Z,67.30
2017-10-25T19:26:27.084Z,67.30
2017-10-25T19:28:53.177Z,67.60
2017-10-25T19:31:19.276Z,67.50
2017-10-25T19:33:45.372Z,67.80
2017-10-25T19:36:11.493Z,67.60
2017-10-25T19:38:37.584Z,67.40
2017-10-25T19:41:03.891Z,67.10
2017-10-25T19:43:30.197Z,67.10
2017-10-25T19:45:56.623Z,66.90
2017-10-25T19:48:25.836Z,66.90
2017-10-25T19:50:52.114Z,66.80
2017-10-25T19:53:18.409Z,67.00
2017-10-25T19:55:44.705Z,67.30
2017-10-25T19:58:11.132Z,67.20
2017-10-25T20:00:37.415Z,67.10
2017-10-25T20:03:03.680Z,67.00
2017-10-25T20:05:29.941Z,67.20
2017-10-25T20:07:56.220Z,67.30
2017-10-25T20:10:22.517Z,67.60
2017-10-25T20:12:48.857Z,67.20
2017-10-25T20:15:15.413Z,67.20
2017-10-25T20:20:14.749Z,67.30
2017-10-25T20:22:41.050Z,67.20
2017-10-25T20:25:07.332Z,67.00
2017-10-25T20:27:33.624Z,66.80
2017-10-25T20:29:59.913Z,66.70
2017-10-25T20:32:26.180Z,66.70
2017-10-25T20:34:53.201Z,67.10
2017-10-25T20:37:19.499Z,67.00
2017-10-25T20:39:45.761Z,67.30
2017-10-25T20:42:12.016Z,67.30
2017-10-25T20:44:38.292Z,67.00
2017-10-25T20:47:04.564Z,66.90
2017-10-25T20:49:30.864Z,67.50
2017-10-25T20:51:57.970Z,67.20
2017-10-25T20:54:24.273Z,67.00
2017-10-25T20:56:50.629Z,67.00
2017-10-25T20:59:17.640Z,67.40
2017-10-25T21:01:43.950Z,67.40
2017-10-25T21:04:10.260Z,67.70
2017-10-25T21:06:37.768Z,67.50
2017-10-25T21:09:04.178Z,68.10
2017-10-25T21:11:30.443Z,67.80
2017-10-25T21:13:58.439Z,67.90
2017-10-25T21:16:24.924Z,67.80
2017-10-25T21:18:51.257Z,67.80
2017-10-25T21:21:18.799Z,67.60
2017-10-25T21:23:47.513Z,68.60
2017-10-25T21:26:17.073Z,67.30
2017-10-25T21:28:49.217Z,67.80
2017-10-25T21:31:16.305Z,68.70
2017-10-25T21:33:43.136Z,68.30
2017-10-25T21:36:16.761Z,68.60
2017-10-25T21:38:43.498Z,68.30
2017-10-25T21:41:09.743Z,68.50
2017-10-25T21:43:35.886Z,68.60
2017-10-25T21:46:01.997Z,68.50
2017-10-25T21:48:28.110Z,68.50
2017-10-25T21:50:54.954Z,68.40
2017-10-25T21:53:21.084Z,68.30
2017-10-25T21:55:47.786Z,68.50
2017-10-25T21:58:14.156Z,68.50
2017-10-25T22:00:40.545Z,68.60
2017-10-25T22:03:07.224Z,68.60
2017-10-25T22:05:33.741Z,67.60
2017-10-25T22:08:00.049Z,68.50
2017-10-25T22:10:27.476Z,68.70
2017-10-25T22:12:53.812Z,68.60
2017-10-25T22:15:20.213Z,68.60
2017-10-25T22:17:46.573Z,68.60
2017-10-25T22:20:12.942Z,69.00
2017-10-25T22:22:40.101Z,68.50
2017-10-25T22:25:06.409Z,68.40
2017-10-25T22:27:32.767Z,68.80
2017-10-25T22:29:59.108Z,68.50
2017-10-25T22:32:25.448Z,68.90
2017-10-25T22:34:51.839Z,68.80
2017-10-25T22:37:18.266Z,68.10
2017-10-25T22:39:44.564Z,68.40
2017-10-25T22:42:11.983Z,68.80
2017-10-25T22:44:38.320Z,68.70
2017-10-25T22:47:04.666Z,68.70
2017-10-25T22:49:30.981Z,68.80
2017-10-25T22:51:57.352Z,68.80
2017-10-25T22:54:27.447Z,68.60
2017-10-25T22:56:55.464Z,68.60
2017-10-25T22:59:23.411Z,68.30
2017-10-25T23:01:50.734Z,67.70
2017-10-25T23:04:17.060Z,68.60
2017-10-25T23:06:43.368Z,68.50
2017-10-25T23:09:10.947Z,68.60
2017-10-25T23:11:38.073Z,68.00
2017-10-25T23:14:04.457Z,68.00
2017-10-25T23:16:30.797Z,68.30
2017-10-25T23:18:57.892Z,67.30
2017-10-25T23:21:24.209Z,67.90
2017-10-25T23:23:50.561Z,67.70
2017-10-25T23:26:16.982Z,68.00
2017-10-25T23:28:46.846Z,68.30
2017-10-25T23:31:13.988Z,68.20
2017-10-25T23:33:40.320Z,68.20
2017-10-25T23:36:06.688Z,68.30
2017-10-25T23:38:33.048Z,67.70
2017-10-25T23:40:59.452Z,67.80
2017-10-25T23:43:26.505Z,67.70
2017-10-25T23:45:53.582Z,67.90
2017-10-25T23:48:20.618Z,67.80
2017-10-25T23:50:46.949Z,67.70
2017-10-25T23:53:13.264Z,67.80
2017-10-25T23:55:39.625Z,67.80
2017-10-25T23:58:06.000Z,67.60
